createdAt,value
2018-03-11T10:50:03.464Z,96357.77
2018-03-11T10:52:31.005Z,96347.87
2018-03-11T10:54:58.529Z,96347.20
2018-03-11T10:57:26.132Z,96340.70
2018-03-11T10:59:53.824Z,96332.08
2018-03-11T11:02:28.009Z,96322.66
2018-03-11T11:05:00.573Z,96309.63
2018-03-11T11:07:28.140Z,96306.89
2018-03-11T11:09:55.732Z,96295.23
2018-03-11T11:12:24.476Z,96281.08
2018-03-11T11:14:52.090Z,96271.42
2018-03-11T11:17:19.720Z,96255.67
2018-03-11T11:19:47.318Z,96215.93
2018-03-11T11:22:15.157Z,96140.08
2018-03-11T11:24:43.684Z,96090.13
2018-03-11T11:27:11.391Z,96142.53
2018-03-11T11:29:39.169Z,96193.45
2018-03-11T11:32:06.905Z,96205.89
2018-03-11T11:34:34.543Z,96197.73
2018-03-11T11:37:02.210Z,96197.52
2018-03-11T11:39:29.846Z,96206.41
2018-03-11T11:41:57.572Z,96209.81
2018-03-11T11:44:25.234Z,96206.89
2018-03-11T11:46:52.954Z,96210.66
2018-03-11T11:49:20.525Z,96206.88
2018-03-11T11:51:48.115Z,96209.55
2018-03-11T11:54:15.779Z,96195.87
2018-03-11T11:56:43.625Z,96191.77
2018-03-11T11:59:11.387Z,96184.11
2018-03-11T12:01:39.071Z,96172.84
2018-03-11T12:04:06.724Z,96180.45
2018-03-11T12:06:34.340Z,96182.31
2018-03-11T12:09:01.924Z,96174.89
2018-03-11T12:11:29.751Z,96166.20
2018-03-11T12:13:57.407Z,96169.21
2018-03-11T12:16:24.997Z,96173.09
2018-03-11T12:18:52.563Z,96174.67
2018-03-11T12:21:20.633Z,96166.34
2018-03-11T12:23:48.324Z,96171.66
2018-03-11T12:26:16.264Z,96165.19
2018-03-11T12:28:43.824Z,96152.87
2018-03-11T12:31:11.673Z,96149.78
2018-03-11T12:33:39.504Z,96152.39
2018-03-11T12:36:07.223Z,96151.81
2018-03-11T12:38:34.988Z,96144.40
2018-03-11T12:41:02.588Z,96136.54
2018-03-11T12:43:30.335Z,96135.28
2018-03-11T12:45:58.150Z,96128.85
2018-03-11T12:48:26.134Z,96132.36
2018-03-11T12:50:54.218Z,96125.27
2018-03-11T12:53:24.145Z,96119.14
2018-03-11T12:55:51.824Z,96116.08
2018-03-11T12:58:19.736Z,96118.77
2018-03-11T13:00:48.195Z,96109.50
2018-03-11T13:03:15.765Z,96106.61
2018-03-11T13:05:43.365Z,96100.97
2018-03-11T13:08:11.054Z,96093.94
2018-03-11T13:10:38.959Z,96091.61
2018-03-11T13:13:07.000Z,96085.14
2018-03-11T13:15:34.580Z,96085.34
2018-03-11T13:18:02.169Z,96089.05
2018-03-11T13:20:41.709Z,96089.06
2018-03-11T13:23:09.354Z,96084.36
2018-03-11T13:25:36.925Z,96088.20
2018-03-11T13:28:16.565Z,96090.76
2018-03-11T13:30:44.253Z,96087.59
2018-03-11T13:33:23.793Z,96083.58
2018-03-11T13:35:51.474Z,96085.55
2018-03-11T13:38:31.631Z,96092.98
2018-03-11T13:40:59.252Z,96093.30
2018-03-11T13:43:26.933Z,96093.57
2018-03-11T13:46:06.454Z,96109.58
2018-03-11T13:48:34.083Z,96102.22
2018-03-11T13:51:01.709Z,96093.92
2018-03-11T13:53:41.193Z,96096.81
2018-03-11T13:56:08.794Z,96100.97
2018-03-11T13:58:43.297Z,96089.52
2018-03-11T14:01:11.070Z,96093.22
2018-03-11T14:03:38.743Z,96091.16
2018-03-11T14:06:06.521Z,96100.06
2018-03-11T14:08:34.075Z,96112.21
2018-03-11T14:11:01.823Z,96106.19
2018-03-11T14:13:29.484Z,96105.13
2018-03-11T14:15:57.367Z,96109.48
2018-03-11T14:18:25.062Z,96104.86
2018-03-11T14:20:52.888Z,96109.55
2018-03-11T14:23:26.873Z,96104.70
2018-03-11T14:25:55.188Z,96105.90
2018-03-11T14:28:22.823Z,96104.98
2018-03-11T14:30:50.421Z,96110.09
2018-03-11T14:33:18.044Z,96109.70
2018-03-11T14:35:45.774Z,96110.58
2018-03-11T14:38:13.446Z,96109.62
2018-03-11T14:40:41.096Z,96109.91
2018-03-11T14:43:09.084Z,96125.64
2018-03-11T14:45:36.949Z,96123.22
2018-03-11T14:48:04.823Z,96120.22
2018-03-11T14:50:32.570Z,96115.89
2018-03-11T14:53:00.854Z,96116.03
2018-03-11T14:55:28.628Z,96120.55
2018-03-11T14:57:56.240Z,96115.81
2018-03-11T15:00:23.950Z,96120.20
2018-03-11T15:02:51.824Z,96110.98
2018-03-11T15:05:19.447Z,96109.14
2018-03-11T15:07:47.136Z,96109.30
2018-03-11T15:10:14.884Z,96102.17
2018-03-11T15:12:42.580Z,96102.38
2018-03-11T15:15:10.188Z,96089.63
2018-03-11T15:17:37.841Z,96094.35
2018-03-11T15:20:05.500Z,96092.91
2018-03-11T15:22:34.209Z,96088.83
2018-03-11T15:25:01.778Z,96091.16
2018-03-11T15:27:29.502Z,96093.98
2018-03-11T15:29:57.165Z,96100.01
2018-03-11T15:32:24.888Z,96096.39
2018-03-11T15:34:52.692Z,96095.75
2018-03-11T15:37:20.555Z,96087.48
2018-03-11T15:39:48.243Z,96090.43
2018-03-11T15:42:15.915Z,96089.92
2018-03-11T15:44:43.725Z,96090.75
2018-03-11T15:47:11.522Z,96092.83
2018-03-11T15:49:39.181Z,96083.27
2018-03-11T15:52:06.755Z,96086.03
2018-03-11T15:54:34.563Z,96081.35
2018-03-11T15:57:02.445Z,96085.48
2018-03-11T15:59:30.085Z,96081.01
2018-03-11T16:01:57.788Z,96080.20
2018-03-11T16:04:25.624Z,96077.17
2018-03-11T16:06:53.184Z,96073.20
2018-03-11T16:09:20.888Z,96073.30
2018-03-11T16:11:48.516Z,96074.18
2018-03-11T16:14:16.120Z,96076.70
2018-03-11T16:16:44.014Z,96073.63
2018-03-11T16:19:11.683Z,96080.19
2018-03-11T16:21:39.361Z,96080.98
2018-03-11T16:24:07.140Z,96080.69
2018-03-11T16:26:34.738Z,96077.81
2018-03-11T16:29:02.375Z,96084.48
2018-03-11T16:31:30.160Z,96079.76
2018-03-11T16:33:57.840Z,96078.63
2018-03-11T16:36:25.462Z,96081.96
2018-03-11T16:38:53.043Z,96082.55
2018-03-11T16:41:20.824Z,96086.48
2018-03-11T16:43:48.431Z,96094.16
2018-03-11T16:46:16.036Z,96099.13
2018-03-11T16:48:43.750Z,96091.66
2018-03-11T16:51:11.363Z,96101.45
2018-03-11T16:53:39.795Z,96102.67
2018-03-11T16:56:07.446Z,96101.42
2018-03-11T16:58:35.124Z,96103.22
2018-03-11T17:01:02.973Z,96112.38
2018-03-11T17:03:30.649Z,96108.70
2018-03-11T17:05:58.354Z,96112.28
2018-03-11T17:08:26.019Z,96112.94
2018-03-11T17:10:53.799Z,96115.50
2018-03-11T17:13:22.015Z,96118.69
2018-03-11T17:15:49.960Z,96122.23
2018-03-11T17:18:17.681Z,96124.86
2018-03-11T17:20:45.381Z,96128.91
2018-03-11T17:23:12.949Z,96133.80
2018-03-11T17:25:40.589Z,96129.86
2018-03-11T17:28:08.190Z,96137.52
2018-03-11T17:30:36.483Z,96140.78
2018-03-11T17:33:04.181Z,96142.77
2018-03-11T17:35:31.771Z,96151.83
2018-03-11T17:37:59.367Z,96143.95
2018-03-11T17:40:27.075Z,96148.17
2018-03-11T17:42:54.686Z,96150.25
2018-03-11T17:45:22.438Z,96139.94
2018-03-11T17:47:50.099Z,96146.59
2018-03-11T17:50:17.775Z,96150.77
2018-03-11T17:52:45.720Z,96145.44
2018-03-11T17:55:14.175Z,96146.47
2018-03-11T17:57:42.574Z,96146.88
2018-03-11T18:00:10.194Z,96144.25
2018-03-11T18:02:38.024Z,96143.22
2018-03-11T18:05:05.648Z,96140.59
2018-03-11T18:07:33.998Z,96134.42
2018-03-11T18:10:01.749Z,96140.58
2018-03-11T18:12:29.440Z,96139.00
2018-03-11T18:14:57.200Z,96138.64
2018-03-11T18:17:24.837Z,96138.27
2018-03-11T18:19:52.400Z,96135.97
2018-03-11T18:22:19.969Z,96130.68
2018-03-11T18:24:47.564Z,96134.86
2018-03-11T18:27:15.310Z,96136.30
2018-03-11T18:29:44.214Z,96133.74
2018-03-11T18:32:11.893Z,96137.17
2018-03-11T18:34:39.713Z,96133.52
2018-03-11T18:37:07.314Z,96136.06
2018-03-11T18:39:34.915Z,96132.02
2018-03-11T18:42:02.730Z,96136.22
2018-03-11T18:44:30.608Z,96127.13
2018-03-11T18:46:58.356Z,96131.13
2018-03-11T18:49:25.974Z,96125.48
2018-03-11T18:51:53.642Z,96129.53
2018-03-11T18:54:21.210Z,96129.27
2018-03-11T18:56:49.058Z,96125.22
2018-03-11T18:59:16.644Z,96123.83
2018-03-11T19:01:44.763Z,96120.20
2018-03-11T19:04:12.884Z,96117.54
2018-03-11T19:06:40.504Z,96115.59
2018-03-11T19:09:08.201Z,96111.96
2018-03-11T19:11:35.877Z,96100.94
2018-03-11T19:14:03.536Z,96098.98
2018-03-11T19:16:31.179Z,96102.92
2018-03-11T19:18:58.820Z,96099.61
2018-03-11T19:21:26.405Z,96094.85
2018-03-11T19:23:54.122Z,96096.41
2018-03-11T19:26:21.858Z,96091.91
2018-03-11T19:28:49.663Z,96088.77
2018-03-11T19:31:17.438Z,96078.33
2018-03-11T19:33:45.002Z,96075.63
2018-03-11T19:36:12.624Z,96072.38
2018-03-11T19:38:40.216Z,96078.41
2018-03-11T19:41:07.813Z,96067.13
2018-03-11T19:43:35.505Z,96067.97
2018-03-11T19:46:03.159Z,96064.80
2018-03-11T19:48:30.742Z,96058.06
2018-03-11T19:50:58.347Z,96055.27
2018-03-11T19:53:26.118Z,96056.55
2018-03-11T19:55:53.743Z,96053.26
2018-03-11T19:58:21.565Z,96059.47
2018-03-11T20:00:49.459Z,96057.23
2018-03-11T20:03:17.128Z,96050.61
2018-03-11T20:05:44.713Z,96046.72
2018-03-11T20:08:12.444Z,96048.22
2018-03-11T20:10:40.140Z,96038.88
2018-03-11T20:13:07.863Z,96041.11
2018-03-11T20:15:35.447Z,96039.56
2018-03-11T20:18:03.297Z,96041.56
2018-03-11T20:20:30.968Z,96043.78
2018-03-11T20:22:58.728Z,96034.00
2018-03-11T20:25:27.357Z,96035.05
2018-03-11T20:27:54.936Z,96027.53
2018-03-11T20:30:22.768Z,96023.76
2018-03-11T20:32:50.627Z,96014.40
2018-03-11T20:35:18.428Z,96015.56
2018-03-11T20:37:46.022Z,96001.17
2018-03-11T20:40:13.663Z,96001.36
2018-03-11T20:42:41.231Z,96004.80
2018-03-11T20:45:09.204Z,95995.33
2018-03-11T20:47:36.748Z,95992.23
2018-03-11T20:50:04.541Z,95988.47
2018-03-11T20:52:32.119Z,95990.67
2018-03-11T20:54:59.685Z,95988.26
2018-03-11T20:57:27.492Z,95984.16
2018-03-11T20:59:55.793Z,95983.48
2018-03-11T21:02:23.393Z,95975.80
2018-03-11T21:04:51.099Z,95972.53
2018-03-11T21:07:18.799Z,95971.55
2018-03-11T21:09:46.413Z,95970.56
2018-03-11T21:12:14.076Z,95964.68
2018-03-11T21:14:41.693Z,95972.41
2018-03-11T21:17:09.438Z,95972.45
2018-03-11T21:19:37.163Z,95991.64
2018-03-11T21:22:05.024Z,95990.55
2018-03-11T21:24:32.584Z,95978.84
2018-03-11T21:27:00.273Z,95976.44
2018-03-11T21:29:27.964Z,95974.28
2018-03-11T21:31:56.126Z,95973.27
2018-03-11T21:34:26.927Z,95972.23
2018-03-11T21:36:54.644Z,95970.55
2018-03-11T21:39:22.308Z,95967.88
2018-03-11T21:41:50.148Z,95959.73
2018-03-11T21:44:17.756Z,95956.59
2018-03-11T21:46:45.314Z,95957.09
2018-03-11T21:49:12.987Z,95953.39
2018-03-11T21:51:40.610Z,95955.56
2018-03-11T21:54:08.245Z,95950.08
2018-03-11T21:56:35.877Z,95949.30
2018-03-11T21:59:03.464Z,95949.19
2018-03-11T22:01:31.220Z,95946.77
2018-03-11T22:03:59.520Z,95941.53
2018-03-11T22:06:27.188Z,95944.25
2018-03-11T22:08:54.839Z,95938.03
2018-03-11T22:11:22.548Z,95935.95
2018-03-11T22:13:50.333Z,95934.33
2018-03-11T22:16:18.005Z,95933.39
2018-03-11T22:18:45.610Z,95939.66
2018-03-11T22:21:16.353Z,95935.44
2018-03-11T22:23:44.358Z,95939.32
2018-03-11T22:26:11.957Z,95936.72
2018-03-11T22:28:39.779Z,95941.83
2018-03-11T22:31:07.369Z,95936.75
2018-03-11T22:33:35.334Z,95935.06
2018-03-11T22:36:03.025Z,95929.16
2018-03-11T22:38:30.834Z,95929.98
2018-03-11T22:40:58.474Z,95930.08
2018-03-11T22:43:26.233Z,95930.37
2018-03-11T22:45:54.788Z,95922.00
2018-03-11T22:48:22.358Z,95915.65
2018-03-11T22:50:50.735Z,95917.17
2018-03-11T22:53:18.293Z,95910.06
2018-03-11T22:55:46.009Z,95907.98
2018-03-11T22:58:13.642Z,95908.65
2018-03-11T23:00:41.314Z,95909.61
2018-03-11T23:03:08.838Z,95912.41
2018-03-11T23:05:36.413Z,95917.17
2018-03-11T23:08:04.054Z,95917.91
2018-03-11T23:10:31.674Z,95918.03
2018-03-11T23:12:59.341Z,95917.48
2018-03-11T23:15:27.090Z,95918.63
2018-03-11T23:17:54.842Z,95910.51
2018-03-11T23:20:23.455Z,95914.48
2018-03-11T23:22:51.000Z,95913.91
2018-03-11T23:25:18.610Z,95913.77
2018-03-11T23:27:47.235Z,95911.90
2018-03-11T23:30:15.419Z,95907.58
2018-03-11T23:32:43.072Z,95910.03
2018-03-11T23:35:10.782Z,95908.64
2018-03-11T23:37:38.443Z,95912.72
2018-03-11T23:40:06.763Z,95913.07
2018-03-11T23:42:34.473Z,95912.13
2018-03-11T23:45:02.100Z,95914.30
2018-03-11T23:47:29.684Z,95917.80
2018-03-11T23:49:57.403Z,95925.09
2018-03-11T23:52:24.942Z,95924.38
2018-03-11T23:54:52.554Z,95925.77
2018-03-11T23:57:20.222Z,95925.44
2018-03-11T23:59:47.772Z,95925.59
